createdAt,value
2022-12-18T00:00:57.643Z,100112.45
2022-12-18T00:04:02.544Z,100115.98
2022-12-18T00:07:08.541Z,100128.91
2022-12-18T00:10:15.368Z,100136.30
2022-12-18T00:13:21.388Z,100128.28
2022-12-18T00:16:35.005Z,100123.05
2022-12-18T00:19:40.212Z,100129.39
2022-12-18T00:22:39.474Z,100136.22
2022-12-18T00:25:41.130Z,100132.75
2022-12-18T00:28:47.085Z,100136.31
2022-12-18T00:31:52.896Z,100139.30
2022-12-18T00:34:58.099Z,100135.56
2022-12-18T00:38:03.609Z,100134.76
2022-12-18T00:41:09.891Z,100130.33
2022-12-18T00:44:16.172Z,100132.78
2022-12-18T00:47:24.222Z,100136.09
2022-12-18T00:50:29.934Z,100133.92
2022-12-18T00:53:35.786Z,100130.17
2022-12-18T00:56:49.965Z,100143.47
2022-12-18T00:59:48.910Z,100148.11
2022-12-18T01:02:54.555Z,100153.88
2022-12-18T01:06:00.816Z,100162.45
2022-12-18T01:09:06.323Z,100166.74
2022-12-18T01:12:11.084Z,100170.59
2022-12-18T01:15:17.442Z,100165.52
2022-12-18T01:18:22.748Z,100174.80
2022-12-18T01:21:31.876Z,100185.63
2022-12-18T01:24:38.501Z,100189.23
2022-12-18T01:27:44.204Z,100186.26
2022-12-18T01:30:49.909Z,100189.77
2022-12-18T01:33:56.062Z,100200.58
2022-12-18T01:37:02.109Z,100202.53
2022-12-18T01:40:07.910Z,100199.06
2022-12-18T01:43:13.417Z,100209.75
2022-12-18T01:46:19.292Z,100215.97
2022-12-18T01:49:27.025Z,100212.42
2022-12-18T01:52:32.708Z,100215.16
2022-12-18T01:55:39.952Z,100221.91
2022-12-18T01:58:58.065Z,100229.48
2022-12-18T02:02:04.529Z,100248.99
2022-12-18T02:05:11.396Z,100259.45
2022-12-18T02:08:36.437Z,100269.88
2022-12-18T02:12:10.070Z,100264.59
2022-12-18T02:15:32.914Z,100264.20
2022-12-18T02:18:43.133Z,100267.06
2022-12-18T02:22:37.158Z,100268.08
2022-12-18T02:26:17.267Z,100274.84
2022-12-18T02:29:30.597Z,100278.92
2022-12-18T02:32:43.082Z,100291.84
2022-12-18T02:35:49.360Z,100290.09
2022-12-18T02:38:57.582Z,100328.96
2022-12-18T02:42:02.483Z,100321.01
2022-12-18T02:45:11.256Z,100328.27
2022-12-18T02:48:16.782Z,100332.25
2022-12-18T02:51:32.882Z,100342.37
2022-12-18T02:54:59.479Z,100339.06
2022-12-18T02:58:38.493Z,100347.12
2022-12-18T03:01:55.123Z,100358.98
2022-12-18T03:05:15.279Z,100365.44
2022-12-18T03:08:39.985Z,100380.65
2022-12-18T03:12:05.972Z,100378.45
2022-12-18T03:15:36.877Z,100384.79
2022-12-18T03:18:52.033Z,100392.79
2022-12-18T03:22:06.012Z,100387.45
2022-12-18T03:25:15.671Z,100378.25
2022-12-18T03:28:24.004Z,100389.13
2022-12-18T03:31:31.757Z,100394.37
2022-12-18T03:34:45.081Z,100399.55
2022-12-18T03:37:52.193Z,100409.90
2022-12-18T03:41:20.275Z,100409.98
2022-12-18T03:44:48.938Z,100413.92
2022-12-18T03:48:21.897Z,100416.58
2022-12-18T03:51:40.414Z,100434.38
2022-12-18T03:54:46.110Z,100429.42
2022-12-18T03:57:51.638Z,100440.91
2022-12-18T04:00:59.857Z,100453.86
2022-12-18T04:04:06.622Z,100456.61
2022-12-18T04:07:12.072Z,100460.49
2022-12-18T04:10:18.789Z,100462.12
2022-12-18T04:13:24.634Z,100465.19
2022-12-18T04:16:30.979Z,100463.01
2022-12-18T04:19:38.688Z,100470.07
2022-12-18T04:22:44.202Z,100472.70
2022-12-18T04:25:50.394Z,100485.10
2022-12-18T04:28:59.075Z,100489.10
2022-12-18T04:32:04.427Z,100490.38
2022-12-18T04:35:11.535Z,100495.67
2022-12-18T04:38:17.936Z,100492.16
2022-12-18T04:41:25.375Z,100504.33
2022-12-18T04:44:30.941Z,100502.83
2022-12-18T04:47:38.271Z,100508.92
2022-12-18T04:50:38.045Z,100523.11
2022-12-18T04:53:30.693Z,100528.98
2022-12-18T04:56:36.340Z,100532.97
2022-12-18T04:59:42.529Z,100546.06
2022-12-18T05:02:48.763Z,100544.55
2022-12-18T05:05:55.282Z,100543.39
2022-12-18T05:09:01.434Z,100554.02
2022-12-18T05:12:07.310Z,100560.86
2022-12-18T05:15:12.715Z,100566.20
2022-12-18T05:18:18.246Z,100565.25
2022-12-18T05:21:24.154Z,100564.05
2022-12-18T05:24:36.482Z,100566.28
2022-12-18T05:27:42.584Z,100567.72
2022-12-18T05:30:50.076Z,100586.96
2022-12-18T05:33:54.938Z,100599.94
2022-12-18T05:37:00.910Z,100613.50
2022-12-18T05:40:05.719Z,100617.53
2022-12-18T05:43:10.792Z,100636.86
2022-12-18T05:46:15.040Z,100638.87
2022-12-18T05:49:20.954Z,100638.76
2022-12-18T05:52:26.054Z,100647.69
2022-12-18T05:55:31.387Z,100648.40
2022-12-18T05:58:31.907Z,100655.14
2022-12-18T06:01:31.890Z,100675.78
2022-12-18T06:04:37.357Z,100684.57
2022-12-18T06:07:43.053Z,100689.99
2022-12-18T06:10:48.655Z,100691.09
2022-12-18T06:13:58.276Z,100694.92
2022-12-18T06:17:01.709Z,100698.98
2022-12-18T06:20:07.820Z,100698.02
2022-12-18T06:23:13.008Z,100696.56
2022-12-18T06:26:28.376Z,100710.19
2022-12-18T06:29:33.243Z,100717.72
2022-12-18T06:32:39.147Z,100718.74
2022-12-18T06:35:43.909Z,100708.93
2022-12-18T06:38:50.345Z,100723.66
2022-12-18T06:41:55.358Z,100721.87
2022-12-18T06:45:01.802Z,100720.23
2022-12-18T06:48:07.576Z,100716.22
2022-12-18T06:51:13.687Z,100721.23
2022-12-18T06:54:19.910Z,100719.74
2022-12-18T06:57:26.624Z,100713.07
2022-12-18T07:00:32.648Z,100729.26
2022-12-18T07:03:40.016Z,100732.19
2022-12-18T07:06:45.536Z,100746.98
2022-12-18T07:09:51.322Z,100750.14
2022-12-18T07:12:57.151Z,100746.09
2022-12-18T07:16:03.170Z,100751.99
2022-12-18T07:19:10.200Z,100759.16
2022-12-18T07:22:16.661Z,100763.83
2022-12-18T07:25:26.774Z,100775.31
2022-12-18T07:28:32.060Z,100780.55
2022-12-18T07:31:37.712Z,100781.98
2022-12-18T07:34:43.532Z,100785.22
2022-12-18T07:37:50.530Z,100789.95
2022-12-18T07:40:55.983Z,100792.94
2022-12-18T07:44:02.563Z,100803.28
2022-12-18T07:47:12.031Z,100814.62
2022-12-18T07:50:18.669Z,100812.98
2022-12-18T07:53:23.893Z,100817.47
2022-12-18T07:56:31.210Z,100818.32
2022-12-18T07:59:37.198Z,100822.63
2022-12-18T08:02:44.680Z,100830.02
2022-12-18T08:05:51.331Z,100824.22
2022-12-18T08:08:57.265Z,100815.86
2022-12-18T08:12:03.408Z,100836.44
2022-12-18T08:15:09.508Z,100832.59
2022-12-18T08:18:15.153Z,100835.18
2022-12-18T08:21:35.135Z,100837.92
2022-12-18T08:24:41.380Z,100838.53
2022-12-18T08:27:48.655Z,100837.89
2022-12-18T08:30:55.814Z,100840.47
2022-12-18T08:34:00.370Z,100835.70
2022-12-18T08:37:06.501Z,100835.06
2022-12-18T08:40:11.500Z,100840.16
2022-12-18T08:43:35.748Z,100837.37
2022-12-18T08:46:42.712Z,100847.12
2022-12-18T08:49:49.298Z,100846.00
2022-12-18T08:52:55.461Z,100842.35
2022-12-18T08:56:02.443Z,100835.80
2022-12-18T08:59:15.781Z,100842.59
2022-12-18T09:02:17.957Z,100855.20
2022-12-18T09:05:24.329Z,100855.45
2022-12-18T09:08:29.780Z,100854.19
2022-12-18T09:11:41.068Z,100859.25
2022-12-18T09:14:47.454Z,100856.67
2022-12-18T09:17:53.509Z,100844.48
2022-12-18T09:21:00.371Z,100854.94
2022-12-18T09:24:09.691Z,100856.16
2022-12-18T09:27:14.875Z,100861.08
2022-12-18T09:30:22.161Z,100851.86
2022-12-18T09:33:27.652Z,100854.17
2022-12-18T09:36:34.510Z,100863.38
2022-12-18T09:39:40.478Z,100865.22
2022-12-18T09:42:47.095Z,100870.85
2022-12-18T09:45:57.402Z,100862.50
2022-12-18T09:49:05.197Z,100873.45
2022-12-18T09:52:26.724Z,100873.81
2022-12-18T09:55:51.251Z,100874.39
2022-12-18T09:59:04.329Z,100882.23
2022-12-18T10:02:10.123Z,100877.81
2022-12-18T10:05:20.946Z,100882.58
2022-12-18T10:08:50.918Z,100889.66
2022-12-18T10:12:20.204Z,100899.97
2022-12-18T10:15:37.716Z,100896.91
2022-12-18T10:18:55.920Z,100903.91
2022-12-18T10:22:15.428Z,100909.29
2022-12-18T10:25:32.311Z,100909.55
2022-12-18T10:28:37.781Z,100913.86
2022-12-18T10:31:43.948Z,100922.16
2022-12-18T10:34:50.644Z,100923.23
2022-12-18T10:38:00.728Z,100927.87
2022-12-18T10:41:19.205Z,100936.89
2022-12-18T10:44:37.917Z,100928.63
2022-12-18T10:47:42.854Z,100920.12
2022-12-18T10:54:04.398Z,100919.76
2022-12-18T10:57:13.479Z,100924.55
2022-12-18T11:00:43.249Z,100935.95
2022-12-18T11:04:01.987Z,100933.78
2022-12-18T11:07:23.479Z,100944.33
2022-12-18T11:10:32.765Z,100940.99
2022-12-18T11:13:44.001Z,100947.13
2022-12-18T11:17:24.949Z,100944.67
2022-12-18T11:20:12.464Z,100942.05
2022-12-18T11:23:27.021Z,100942.05
2022-12-18T11:26:32.389Z,100944.72
2022-12-18T11:29:47.151Z,100948.23
2022-12-18T11:32:55.121Z,100953.43
2022-12-18T11:36:11.861Z,100957.57
2022-12-18T11:39:36.443Z,100964.98
2022-12-18T11:42:53.486Z,100968.87
2022-12-18T11:46:19.923Z,100968.09
2022-12-18T11:49:31.404Z,100972.88
2022-12-18T11:52:56.075Z,100959.13
2022-12-18T11:56:03.291Z,100967.11
2022-12-18T11:59:21.631Z,100965.59
2022-12-18T12:02:33.657Z,100975.98
2022-12-18T12:06:09.195Z,100976.40
2022-12-18T12:09:40.943Z,100974.67
2022-12-18T12:13:19.845Z,100978.28
2022-12-18T12:16:41.038Z,100984.95
2022-12-18T12:19:59.596Z,100985.03
2022-12-18T12:23:13.020Z,100989.78
2022-12-18T12:26:44.591Z,101000.92
2022-12-18T12:30:10.244Z,101006.98
2022-12-18T12:33:45.101Z,101014.55
2022-12-18T12:37:29.056Z,101019.34
2022-12-18T12:40:56.974Z,101020.73
2022-12-18T12:44:00.781Z,101031.01
2022-12-18T12:46:59.712Z,101033.13
2022-12-18T12:50:08.080Z,101034.03
2022-12-18T12:53:13.142Z,101034.19
2022-12-18T12:56:19.826Z,101041.06
2022-12-18T12:59:46.703Z,101045.23
2022-12-18T13:03:17.355Z,101049.16
2022-12-18T13:06:27.577Z,101051.16
2022-12-18T13:09:32.507Z,101057.22
2022-12-18T13:12:57.048Z,101059.28
2022-12-18T13:15:59.625Z,101057.91
2022-12-18T13:19:10.388Z,101056.78
2022-12-18T13:22:17.031Z,101059.36
2022-12-18T13:25:51.639Z,101072.22
2022-12-18T13:29:02.166Z,101077.24
2022-12-18T13:32:18.415Z,101075.55
2022-12-18T13:35:41.514Z,101083.16
2022-12-18T13:38:51.273Z,101089.97
2022-12-18T13:41:57.352Z,101092.41
2022-12-18T13:45:02.301Z,101099.30
2022-12-18T13:48:07.292Z,101083.41
2022-12-18T13:51:25.945Z,101100.16
2022-12-18T13:54:36.150Z,101102.75
2022-12-18T13:57:51.091Z,101105.31
2022-12-18T14:00:59.243Z,101106.00
2022-12-18T14:04:06.078Z,101103.12
2022-12-18T14:07:20.241Z,101115.58
2022-12-18T14:13:55.262Z,101125.69
2022-12-18T14:17:01.822Z,101138.52
2022-12-18T14:20:08.503Z,101140.14
2022-12-18T14:23:14.406Z,101150.14
2022-12-18T14:26:40.793Z,101152.42
2022-12-18T14:29:46.398Z,101156.33
2022-12-18T14:32:53.040Z,101168.09
2022-12-18T14:36:17.056Z,101168.02
2022-12-18T14:39:24.911Z,101180.37
2022-12-18T14:42:31.298Z,101176.80
2022-12-18T14:45:59.778Z,101183.92
2022-12-18T14:49:04.854Z,101199.25
2022-12-18T14:52:14.661Z,101197.98
2022-12-18T14:55:20.725Z,101199.71
2022-12-18T14:58:27.103Z,101200.68
2022-12-18T15:01:40.244Z,101197.59
2022-12-18T15:04:49.088Z,101211.05
2022-12-18T15:08:04.608Z,101205.00
2022-12-18T15:11:13.277Z,101215.02
2022-12-18T15:14:42.781Z,101227.22
2022-12-18T15:17:48.168Z,101232.69
2022-12-18T15:21:07.723Z,101239.28
2022-12-18T15:24:13.352Z,101248.33
2022-12-18T15:27:19.071Z,101243.70
2022-12-18T15:30:35.146Z,101247.72
2022-12-18T15:33:42.021Z,101247.27
2022-12-18T15:36:47.122Z,101251.75
2022-12-18T15:39:53.573Z,101264.53
2022-12-18T15:43:18.566Z,101262.39
2022-12-18T15:46:36.305Z,101257.48
2022-12-18T15:49:41.760Z,101269.44
2022-12-18T15:52:57.596Z,101276.87
2022-12-18T15:56:21.431Z,101287.16
2022-12-18T15:59:31.169Z,101290.61
2022-12-18T16:02:38.773Z,101307.16
2022-12-18T16:05:45.557Z,101324.01
2022-12-18T16:08:50.570Z,101315.92
2022-12-18T16:11:58.155Z,101319.76
2022-12-18T16:15:03.827Z,101339.11
2022-12-18T16:18:09.946Z,101320.81
2022-12-18T16:21:15.781Z,101334.59
2022-12-18T16:24:21.087Z,101346.42
2022-12-18T16:27:27.076Z,101339.53
2022-12-18T16:30:38.650Z,101343.76
2022-12-18T16:33:42.760Z,101328.86
2022-12-18T16:36:42.157Z,101355.36
2022-12-18T16:39:47.139Z,101339.91
2022-12-18T16:42:48.695Z,101338.34
2022-12-18T16:45:53.960Z,101370.59
2022-12-18T16:49:00.597Z,101354.67
2022-12-18T16:52:06.128Z,101391.84
2022-12-18T16:55:11.145Z,101371.81
2022-12-18T16:58:16.763Z,101372.00
2022-12-18T17:01:26.813Z,101372.00
2022-12-18T17:04:31.516Z,101375.72
2022-12-18T17:07:37.652Z,101361.05
2022-12-18T17:10:44.072Z,101379.90
2022-12-18T17:13:44.576Z,101386.80
2022-12-18T17:17:07.204Z,101399.51
2022-12-18T17:19:51.060Z,101389.45
2022-12-18T17:22:38.100Z,101395.95
2022-12-18T17:25:30.658Z,101399.84
2022-12-18T17:28:23.362Z,101393.02
2022-12-18T17:31:36.445Z,101421.95
2022-12-18T17:34:43.272Z,101410.52
2022-12-18T17:37:49.947Z,101421.51
2022-12-18T17:40:56.829Z,101416.64
2022-12-18T17:44:10.419Z,101423.52
2022-12-18T17:47:17.904Z,101433.27
2022-12-18T17:50:23.982Z,101443.53
2022-12-18T17:53:30.066Z,101454.21
2022-12-18T17:56:36.553Z,101465.23
2022-12-18T17:59:42.998Z,101460.20
2022-12-18T18:02:49.478Z,101452.73
2022-12-18T18:05:55.827Z,101461.72
2022-12-18T18:09:01.435Z,101476.99
2022-12-18T18:12:25.674Z,101486.27
2022-12-18T18:15:31.308Z,101480.27
2022-12-18T18:18:36.600Z,101490.33
2022-12-18T18:21:37.058Z,101473.41
2022-12-18T18:24:42.949Z,101490.36
2022-12-18T18:27:49.763Z,101472.88
2022-12-18T18:30:55.852Z,101496.81
2022-12-18T18:34:00.891Z,101509.63
2022-12-18T18:37:06.492Z,101502.05
2022-12-18T18:40:11.802Z,101504.49
2022-12-18T18:43:16.629Z,101517.95
2022-12-18T18:46:21.936Z,101501.66
2022-12-18T18:49:28.469Z,101505.69
2022-12-18T18:52:27.284Z,101507.13
2022-12-18T18:55:25.839Z,101522.78
2022-12-18T18:58:27.355Z,101531.47
2022-12-18T19:01:35.155Z,101537.09
2022-12-18T19:04:45.785Z,101513.12
2022-12-18T19:07:49.061Z,101531.08
2022-12-18T19:10:57.810Z,101549.51
2022-12-18T19:14:03.247Z,101533.99
2022-12-18T19:17:09.555Z,101545.70
2022-12-18T19:20:15.507Z,101549.34
2022-12-18T19:23:20.655Z,101545.62
2022-12-18T19:26:28.553Z,101554.14
2022-12-18T19:29:32.905Z,101540.62
2022-12-18T19:32:38.727Z,101561.88
2022-12-18T19:35:37.952Z,101552.33
2022-12-18T19:38:31.213Z,101562.97
2022-12-18T19:41:37.175Z,101553.45
2022-12-18T19:44:42.466Z,101547.83
2022-12-18T19:47:48.143Z,101557.80
2022-12-18T19:50:56.761Z,101568.40
2022-12-18T19:54:02.234Z,101575.66
2022-12-18T19:57:08.920Z,101582.94
2022-12-18T20:00:18.813Z,101600.22
2022-12-18T20:03:30.592Z,101597.75
2022-12-18T20:06:41.240Z,101609.03
2022-12-18T20:09:47.889Z,101613.27
2022-12-18T20:12:54.343Z,101613.77
2022-12-18T20:16:00.610Z,101613.60
2022-12-18T20:19:06.539Z,101620.42
2022-12-18T20:22:12.260Z,101612.48
2022-12-18T20:25:17.834Z,101625.49
2022-12-18T20:28:23.591Z,101624.70
2022-12-18T20:31:29.792Z,101621.80
2022-12-18T20:34:34.938Z,101627.52
2022-12-18T20:37:43.822Z,101628.50
2022-12-18T20:40:48.247Z,101642.17
2022-12-18T20:43:56.016Z,101642.12
2022-12-18T20:47:02.349Z,101635.62
2022-12-18T20:50:09.667Z,101640.09
2022-12-18T20:53:15.621Z,101633.67
2022-12-18T20:56:24.248Z,101655.83
2022-12-18T20:59:31.947Z,101659.30
2022-12-18T21:02:38.416Z,101653.49
2022-12-18T21:05:44.895Z,101662.34
2022-12-18T21:08:44.725Z,101662.42
2022-12-18T21:12:10.316Z,101659.27
2022-12-18T21:15:28.228Z,101664.64
2022-12-18T21:18:29.651Z,101657.39
2022-12-18T21:21:38.456Z,101674.17
2022-12-18T21:24:41.447Z,101654.66
2022-12-18T21:27:46.898Z,101651.20
2022-12-18T21:30:53.396Z,101670.41
2022-12-18T21:34:02.148Z,101673.09
2022-12-18T21:37:09.297Z,101667.77
2022-12-18T21:40:14.723Z,101674.69
2022-12-18T21:43:37.925Z,101672.43
2022-12-18T21:46:43.274Z,101670.52
2022-12-18T21:49:50.066Z,101666.41
2022-12-18T21:52:56.725Z,101681.70
2022-12-18T21:56:04.877Z,101683.41
2022-12-18T21:59:12.072Z,101690.87
2022-12-18T22:02:22.126Z,101699.75
2022-12-18T22:05:28.346Z,101698.36
2022-12-18T22:08:33.981Z,101693.74
2022-12-18T22:11:40.324Z,101702.05
2022-12-18T22:14:46.898Z,101707.47
2022-12-18T22:17:56.984Z,101708.70
2022-12-18T22:21:00.642Z,101701.06
2022-12-18T22:24:14.577Z,101709.00
2022-12-18T22:27:20.504Z,101695.75
2022-12-18T22:30:29.078Z,101698.83
2022-12-18T22:33:34.738Z,101711.39
2022-12-18T22:36:39.869Z,101715.53
2022-12-18T22:39:46.697Z,101707.05
2022-12-18T22:42:53.896Z,101706.66
2022-12-18T22:46:00.065Z,101719.77
2022-12-18T22:49:05.556Z,101721.87
2022-12-18T22:52:11.178Z,101731.05
2022-12-18T22:55:17.860Z,101723.70
2022-12-18T22:58:23.438Z,101723.83
2022-12-18T23:01:34.940Z,101719.98
2022-12-18T23:04:45.625Z,101713.80
2022-12-18T23:07:51.594Z,101720.28
2022-12-18T23:10:57.813Z,101718.98
2022-12-18T23:14:04.840Z,101731.98
2022-12-18T23:17:10.596Z,101720.25
2022-12-18T23:20:16.210Z,101720.30
2022-12-18T23:23:21.830Z,101734.21
2022-12-18T23:26:36.212Z,101731.70
2022-12-18T23:29:41.517Z,101740.58
2022-12-18T23:32:52.133Z,101742.19
2022-12-18T23:35:59.095Z,101758.50
2022-12-18T23:39:12.158Z,101750.70
2022-12-18T23:42:19.193Z,101767.47
2022-12-18T23:45:26.526Z,101767.16
2022-12-18T23:48:33.880Z,101774.69
2022-12-18T23:51:39.091Z,101778.05
2022-12-18T23:54:45.962Z,101783.75
2022-12-18T23:57:52.606Z,101782.35
